Flight Track Log - Related Links

Times and Time Zones

All times are in EDT time to prevent confusion due to time zone crossing. See the BER8752 flight status page for this flight to view local times or setup timezone preferences in your user account.

Time Position Orientation Groundspeed Altitude Reporting Facility
EDT Latitude Longitude Course Direction KTS MPH feet Rate Location/Type
Mon 03:48:00 PM 51.8249 13.8789 154° Southeast  Level Estimated
Mon 03:49:00 PM 51.7329 13.9515 154° Southeast  Level Estimated
Mon 03:50:00 PM 51.6408 14.0237 154° Southeast  Level Estimated
Mon 03:51:00 PM 51.5486 14.0956 154° Southeast  Level Estimated
Mon 03:52:00 PM 51.4565 14.1673 154° Southeast  Level Estimated
Mon 03:53:00 PM 51.3642 14.2387 154° Southeast  Level Estimated
Mon 03:54:00 PM 51.2720 14.3098 154° Southeast  Level Estimated
Mon 03:55:00 PM 51.1797 14.3806 154° Southeast  Level Estimated
Mon 03:56:00 PM 51.0873 14.4511 154° Southeast  Level Estimated
Mon 03:57:00 PM 50.9949 14.5213 154° Southeast  Level Estimated
Mon 03:58:00 PM 50.9025 14.5913 154° Southeast  Level Estimated
Mon 03:59:00 PM 50.8100 14.6610 155° Southeast  Level Estimated
Mon 04:00:00 PM 50.7175 14.7304 155° Southeast  Level Estimated
Mon 04:01:00 PM 50.6249 14.7995 155° Southeast  Level Estimated
Mon 04:02:00 PM 50.5323 14.8684 155° Southeast  Level Estimated
Mon 04:03:00 PM 50.4397 14.9370 155° Southeast  Level Estimated
Mon 04:04:00 PM 50.3470 15.0053 155° Southeast  Level Estimated
Mon 04:05:00 PM 50.2543 15.0733 155° Southeast  Level Estimated
Mon 04:06:00 PM 50.1615 15.1411 155° Southeast  Level Estimated
Mon 04:07:00 PM 50.0687 15.2087 155° Southeast  Level Estimated
Mon 04:08:00 PM 49.9759 15.2759 155° Southeast  Level Estimated
Mon 04:09:00 PM 49.8830 15.3429 155° Southeast  Level Estimated
Mon 04:10:00 PM 49.7901 15.4097 155° Southeast  Level Estimated
Mon 04:11:00 PM 49.6971 15.4762 155° Southeast  Level Estimated
Mon 04:12:00 PM 49.6041 15.5424 155° Southeast  Level Estimated
Mon 04:13:00 PM 49.5111 15.6084 155° Southeast  Level Estimated
Mon 04:14:00 PM 49.4180 15.6742 155° Southeast  Level Estimated
Mon 04:15:00 PM 49.3249 15.7396 155° Southeast  Level Estimated
Mon 04:16:00 PM 49.2318 15.8049 155° Southeast  Level Estimated
Mon 04:17:00 PM 49.1386 15.8699 155° Southeast  Level Estimated
Mon 04:18:00 PM 49.0454 15.9346 156° South  Level Estimated
Mon 04:19:00 PM 48.9521 15.9991 156° South  Level Estimated
Mon 04:20:00 PM 48.8588 16.0634 156° South  Level Estimated
Mon 04:21:00 PM 48.7655 16.1274 156° South  Level Estimated
Mon 04:22:00 PM 48.6721 16.1912 156° South  Level Estimated
Mon 04:23:00 PM 48.5787 16.2548 156° South  Level Estimated
Mon 04:24:00 PM 48.4853 16.3181 156° South  Level Estimated
Mon 04:25:00 PM 48.3918 16.3812 156° South  Level Estimated
Mon 04:26:00 PM 48.2983 16.4441 156° South  Level Estimated
Mon 04:27:00 PM 48.2048 16.5067 156° South  Level Estimated
Mon 04:28:00 PM 48.1112 16.5691 156° South  Level Estimated
Mon 04:29:00 PM 48.1103 16.5697 156° South  Level Estimated
Mon 04:30:00 PM 48.1103 16.5697 146° Southeast  Level Estimated
Mon 04:31:00 PM 48.1103 16.5697 146° Southeast  Level Estimated
Mon 04:32:00 PM 48.1103 16.5697 146° Southeast  Level Estimated
Mon 04:33:00 PM 48.1103 16.5697 146° Southeast  Level Estimated
Mon 04:34:00 PM 48.1103 16.5697 146° Southeast  Level Estimated
Mon 04:35:00 PM 48.1103 16.5697 146° Southeast  Level Estimated
Mon 04:36:00 PM 48.1103 16.5697 146° Southeast  Level Estimated
Mon 04:37:00 PM 48.1103 16.5697 146° Southeast  Level Estimated
Mon 04:38:00 PM 48.1103 16.5697 146° Southeast  Level Estimated
Mon 04:39:00 PM 48.1103 16.5697 146° Southeast  Level Estimated
Mon 04:40:00 PM 48.1103 16.5697 146° Southeast  Level Estimated
Mon 04:41:00 PM 48.1103 16.5697 146° Southeast  Level Estimated
Mon 04:42:00 PM 48.1103 16.5697 146° Southeast  Level Estimated
Mon 04:43:00 PM 48.1103 16.5697 146° Southeast  Level Estimated
Mon 04:44:00 PM 48.1103 16.5697 146° Southeast  Level Estimated

Login

Don't have an account? Register now (free) for customized features, flight alerts, and more!